createdAt,value
2022-08-11T00:00:39.005Z,1022.34
2022-08-11T00:01:38.954Z,1022.31
2022-08-11T00:02:39.108Z,1022.31
2022-08-11T00:03:43.620Z,1022.30
2022-08-11T00:04:38.936Z,1022.29
2022-08-11T00:05:38.902Z,1022.29
2022-08-11T00:06:38.918Z,1022.26
2022-08-11T00:07:38.860Z,1022.28
2022-08-11T00:08:38.871Z,1022.29
2022-08-11T00:09:39.910Z,1022.28
2022-08-11T00:10:38.837Z,1022.25
2022-08-11T00:11:38.804Z,1022.27
2022-08-11T00:12:39.064Z,1022.26
2022-08-11T00:13:38.785Z,1022.20
2022-08-11T00:14:38.784Z,1022.25
2022-08-11T00:15:38.761Z,1022.24
2022-08-11T00:16:38.748Z,1022.22
2022-08-11T00:17:38.728Z,1022.27
2022-08-11T00:18:38.761Z,1022.23
2022-08-11T00:20:14.733Z,1022.22
2022-08-11T00:20:38.713Z,1022.25
2022-08-11T00:22:04.166Z,1022.24
2022-08-11T00:22:38.889Z,1022.27
2022-08-11T00:23:38.649Z,1022.22
2022-08-11T00:24:53.379Z,1022.21
2022-08-11T00:25:38.622Z,1022.22
2022-08-11T00:26:38.618Z,1022.23
2022-08-11T00:27:38.603Z,1022.21
2022-08-11T00:28:38.599Z,1022.23
2022-08-11T00:29:38.572Z,1022.24
2022-08-11T00:30:38.606Z,1022.21
2022-08-11T00:31:38.535Z,1022.22
2022-08-11T00:32:38.756Z,1022.24
2022-08-11T00:33:44.420Z,1022.25
2022-08-11T00:34:38.522Z,1022.22
2022-08-11T00:35:51.718Z,1022.26
2022-08-11T00:36:38.520Z,1022.27
2022-08-11T00:37:38.464Z,1022.31
2022-08-11T00:38:38.453Z,1022.29
2022-08-11T00:39:38.481Z,1022.28
2022-08-11T00:40:38.854Z,1022.25
2022-08-11T00:41:38.404Z,1022.21
2022-08-11T00:42:38.496Z,1022.27
2022-08-11T00:43:38.378Z,1022.26
2022-08-11T00:44:38.380Z,1022.27
2022-08-11T00:45:38.368Z,1022.25
2022-08-11T00:46:38.355Z,1022.28
2022-08-11T00:47:38.328Z,1022.30
2022-08-11T00:48:38.354Z,1022.29
2022-08-11T00:49:38.297Z,1022.32
2022-08-11T00:50:38.295Z,1022.27
2022-08-11T00:51:56.700Z,1022.34
2022-08-11T00:52:38.548Z,1022.26
2022-08-11T00:53:38.253Z,1022.34
2022-08-11T00:54:38.305Z,1022.31
2022-08-11T00:55:38.219Z,1022.30
2022-08-11T00:56:38.223Z,1022.33
2022-08-11T00:57:38.719Z,1022.31
2022-08-11T00:58:38.192Z,1022.28
2022-08-11T00:59:38.167Z,1022.32
2022-08-11T01:00:38.221Z,1022.30
2022-08-11T01:01:38.142Z,1022.36
2022-08-11T01:02:38.273Z,1022.31
2022-08-11T01:03:38.120Z,1022.32
2022-08-11T01:04:38.120Z,1022.34
2022-08-11T01:05:38.093Z,1022.32
2022-08-11T01:06:38.120Z,1022.30
2022-08-11T01:08:02.129Z,1022.29
2022-08-11T01:08:38.074Z,1022.29
2022-08-11T01:09:38.032Z,1022.31
2022-08-11T01:10:38.032Z,1022.28
2022-08-11T01:11:38.008Z,1022.36
2022-08-11T01:12:38.229Z,1022.33
2022-08-11T01:13:37.982Z,1022.34
2022-08-11T01:14:37.981Z,1022.37
2022-08-11T01:15:37.950Z,1022.38
2022-08-11T01:16:37.953Z,1022.35
2022-08-11T01:17:37.942Z,1022.38
2022-08-11T01:18:37.965Z,1022.43
2022-08-11T01:20:45.044Z,1022.41
2022-08-11T01:20:53.439Z,1022.42
2022-08-11T01:21:43.875Z,1022.40
2022-08-11T01:22:37.993Z,1022.36
2022-08-11T01:23:37.853Z,1022.35
2022-08-11T01:24:37.878Z,1022.37
2022-08-11T01:25:56.929Z,1022.39
2022-08-11T01:26:37.833Z,1022.37
2022-08-11T01:27:37.797Z,1022.38
2022-08-11T01:28:37.807Z,1022.37
2022-08-11T01:29:37.774Z,1022.37
2022-08-11T01:30:37.795Z,1022.39
2022-08-11T01:31:37.739Z,1022.39
2022-08-11T01:32:37.974Z,1022.41
2022-08-11T01:33:37.730Z,1022.39
2022-08-11T01:34:37.710Z,1022.39
2022-08-11T01:35:37.691Z,1022.37
2022-08-11T01:36:37.724Z,1022.33
2022-08-11T01:37:37.669Z,1022.29
2022-08-11T01:38:37.677Z,1022.31
2022-08-11T01:39:37.674Z,1022.31
2022-08-11T01:40:37.642Z,1022.28
2022-08-11T01:41:37.603Z,1022.26
2022-08-11T01:42:37.778Z,1022.26
2022-08-11T01:43:37.587Z,1022.24
2022-08-11T01:44:37.582Z,1022.29
2022-08-11T01:45:37.561Z,1022.28
2022-08-11T01:46:37.549Z,1022.26
2022-08-11T01:47:37.528Z,1022.25
2022-08-11T01:48:37.576Z,1022.26
2022-08-11T01:50:09.632Z,1022.23
2022-08-11T01:50:37.509Z,1022.28
2022-08-11T01:51:40.836Z,1022.31
2022-08-11T01:52:37.476Z,1022.31
2022-08-11T01:53:37.444Z,1022.34
2022-08-11T01:54:37.494Z,1022.35
2022-08-11T01:55:37.429Z,1022.33
2022-08-11T01:56:37.422Z,1022.37
2022-08-11T01:57:37.388Z,1022.39
2022-08-11T01:58:43.344Z,1022.35
2022-08-11T01:59:37.383Z,1022.34
2022-08-11T02:00:37.505Z,1022.38
2022-08-11T02:01:37.340Z,1022.39
2022-08-11T02:02:37.618Z,1022.37
2022-08-11T02:03:37.316Z,1022.35
2022-08-11T02:04:37.316Z,1022.36
2022-08-11T02:05:37.281Z,1022.36
2022-08-11T02:06:37.327Z,1022.35
2022-08-11T02:07:37.260Z,1022.37
2022-08-11T02:08:41.870Z,1022.34
2022-08-11T02:09:37.238Z,1022.35
2022-08-11T02:10:38.534Z,1022.33
2022-08-11T02:11:37.717Z,1022.31
2022-08-11T02:12:37.318Z,1022.28
2022-08-11T02:13:37.325Z,1022.34
2022-08-11T02:14:37.181Z,1022.32
2022-08-11T02:15:37.168Z,1022.33
2022-08-11T02:16:37.162Z,1022.31
2022-08-11T02:17:37.143Z,1022.37
2022-08-11T02:18:37.159Z,1022.35
2022-08-11T02:19:37.112Z,1022.33
2022-08-11T02:20:37.098Z,1022.39
2022-08-11T02:21:37.072Z,1022.36
2022-08-11T02:22:37.241Z,1022.35
2022-08-11T02:24:05.667Z,1022.40
2022-08-11T02:24:37.090Z,1022.35
2022-08-11T02:25:37.015Z,1022.39
2022-08-11T02:26:37.036Z,1022.37
2022-08-11T02:27:36.994Z,1022.34
2022-08-11T02:28:40.327Z,1022.37
2022-08-11T02:29:36.973Z,1022.36
2022-08-11T02:30:36.993Z,1022.39
2022-08-11T02:32:15.480Z,1022.38
2022-08-11T02:32:37.131Z,1022.36
2022-08-11T02:33:36.908Z,1022.36
2022-08-11T02:34:36.916Z,1022.39
2022-08-11T02:35:36.891Z,1022.33
2022-08-11T02:36:36.913Z,1022.33
2022-08-11T02:37:36.870Z,1022.33
2022-08-11T02:38:36.858Z,1022.37
2022-08-11T02:39:36.860Z,1022.35
2022-08-11T02:40:36.832Z,1022.37
2022-08-11T02:41:36.819Z,1022.33
2022-08-11T02:42:36.846Z,1022.39
2022-08-11T02:43:36.779Z,1022.30
2022-08-11T02:44:36.781Z,1022.34
2022-08-11T02:45:36.762Z,1022.27
2022-08-11T02:46:36.753Z,1022.30
2022-08-11T02:47:36.728Z,1022.29
2022-08-11T02:48:36.765Z,1022.29
2022-08-11T02:49:36.709Z,1022.28
2022-08-11T02:50:36.708Z,1022.32
2022-08-11T02:51:36.677Z,1022.29
2022-08-11T02:52:36.875Z,1022.36
2022-08-11T02:53:36.645Z,1022.29
2022-08-11T02:54:36.675Z,1022.32
2022-08-11T02:55:56.545Z,1022.33
2022-08-11T02:56:36.646Z,1022.33
2022-08-11T02:57:36.588Z,1022.34
2022-08-11T02:58:36.612Z,1022.33
2022-08-11T02:59:36.567Z,1022.36
2022-08-11T03:00:36.619Z,1022.34
2022-08-11T03:01:36.581Z,1022.35
2022-08-11T03:02:36.628Z,1022.33
2022-08-11T03:03:36.511Z,1022.36
2022-08-11T03:04:37.508Z,1022.36
2022-08-11T03:05:36.495Z,1022.39
2022-08-11T03:06:36.528Z,1022.34
2022-08-11T03:07:36.459Z,1022.38
2022-08-11T03:08:36.458Z,1022.39
2022-08-11T03:09:36.430Z,1022.42
2022-08-11T03:10:36.424Z,1022.42
2022-08-11T03:11:36.420Z,1022.40
2022-08-11T03:12:36.571Z,1022.39
2022-08-11T03:13:36.384Z,1022.38
2022-08-11T03:14:36.375Z,1022.39
2022-08-11T03:15:36.352Z,1022.33
2022-08-11T03:16:36.361Z,1022.40
2022-08-11T03:17:36.319Z,1022.37
2022-08-11T03:18:36.357Z,1022.33
2022-08-11T03:19:36.294Z,1022.32
2022-08-11T03:20:38.143Z,1022.34
2022-08-11T03:22:01.149Z,1022.34
2022-08-11T03:22:36.514Z,1022.35
2022-08-11T03:23:36.242Z,1022.38
2022-08-11T03:24:36.298Z,1022.36
2022-08-11T03:25:36.212Z,1022.34
2022-08-11T03:26:36.216Z,1022.33
2022-08-11T03:27:36.193Z,1022.37
2022-08-11T03:28:36.189Z,1022.33
2022-08-11T03:29:36.174Z,1022.35
2022-08-11T03:30:36.195Z,1022.40
2022-08-11T03:31:36.152Z,1022.38
2022-08-11T03:32:36.194Z,1022.37
2022-08-11T03:33:36.102Z,1022.38
2022-08-11T03:34:36.106Z,1022.37
2022-08-11T03:35:36.074Z,1022.36
2022-08-11T03:37:15.401Z,1022.40
2022-08-11T03:37:36.072Z,1022.36
2022-08-11T03:38:36.004Z,1022.34
2022-08-11T03:39:36.066Z,1022.34
2022-08-11T03:40:35.969Z,1022.39
2022-08-11T03:42:01.259Z,1022.35
2022-08-11T03:42:36.091Z,1022.37
2022-08-11T03:43:35.918Z,1022.31
2022-08-11T03:44:35.928Z,1022.33
2022-08-11T03:45:40.785Z,1022.32
2022-08-11T03:46:35.911Z,1022.32
2022-08-11T03:47:35.868Z,1022.32
2022-08-11T03:48:35.910Z,1022.37
2022-08-11T03:49:35.839Z,1022.40
2022-08-11T03:50:35.847Z,1022.37
2022-08-11T03:51:51.487Z,1022.36
2022-08-11T03:52:35.837Z,1022.38
2022-08-11T03:53:35.810Z,1022.36
2022-08-11T03:54:35.818Z,1022.40
2022-08-11T03:55:35.759Z,1022.41
2022-08-11T03:56:35.755Z,1022.42
2022-08-11T03:57:35.743Z,1022.43
2022-08-11T03:58:41.134Z,1022.42
2022-08-11T03:59:35.710Z,1022.41
2022-08-11T04:00:35.743Z,1022.40
2022-08-11T04:01:35.743Z,1022.44
2022-08-11T04:02:35.778Z,1022.45
2022-08-11T04:03:35.655Z,1022.44
2022-08-11T04:04:35.651Z,1022.39
2022-08-11T04:05:35.623Z,1022.41
2022-08-11T04:06:35.691Z,1022.43
2022-08-11T04:07:35.611Z,1022.40
2022-08-11T04:08:35.585Z,1022.44
2022-08-11T04:09:35.596Z,1022.43
2022-08-11T04:10:35.564Z,1022.46
2022-08-11T04:11:35.557Z,1022.40
2022-08-11T04:12:37.016Z,1022.41
2022-08-11T04:13:35.532Z,1022.42
2022-08-11T04:14:35.501Z,1022.43
2022-08-11T04:15:35.522Z,1022.40
2022-08-11T04:16:35.478Z,1022.41
2022-08-11T04:17:35.482Z,1022.42
2022-08-11T04:18:35.489Z,1022.45
2022-08-11T04:19:35.469Z,1022.41
2022-08-11T04:20:35.440Z,1022.43
2022-08-11T04:21:35.447Z,1022.42
2022-08-11T04:22:35.396Z,1022.40
2022-08-11T04:24:36.589Z,1022.41
2022-08-11T04:24:48.390Z,1022.46
2022-08-11T04:25:35.377Z,1022.40
2022-08-11T04:26:35.355Z,1022.42
2022-08-11T04:27:37.075Z,1022.38
2022-08-11T04:28:35.322Z,1022.42
2022-08-11T04:29:39.430Z,1022.42
2022-08-11T04:30:35.331Z,1022.42
2022-08-11T04:31:44.301Z,1022.42
2022-08-11T04:32:35.275Z,1022.38
2022-08-11T04:33:35.402Z,1022.37
2022-08-11T04:34:35.249Z,1022.37
2022-08-11T04:35:35.244Z,1022.37
2022-08-11T04:36:35.245Z,1022.37
2022-08-11T04:37:35.231Z,1022.37
2022-08-11T04:38:35.187Z,1022.38
2022-08-11T04:39:35.223Z,1022.35
2022-08-11T04:40:35.167Z,1022.36
2022-08-11T04:41:35.159Z,1022.31
2022-08-11T04:42:35.180Z,1022.33
2022-08-11T04:43:35.128Z,1022.28
2022-08-11T04:44:35.105Z,1022.28
2022-08-11T04:45:35.112Z,1022.26
2022-08-11T04:46:35.084Z,1022.28
2022-08-11T04:48:02.049Z,1022.28
2022-08-11T04:48:35.089Z,1022.28
2022-08-11T04:49:35.050Z,1022.28
2022-08-11T04:50:35.030Z,1022.29
2022-08-11T04:51:35.024Z,1022.37
2022-08-11T04:52:38.107Z,1022.37
2022-08-11T04:53:35.006Z,1022.34
2022-08-11T04:54:35.003Z,1022.34
2022-08-11T04:55:34.970Z,1022.38
2022-08-11T04:56:34.955Z,1022.36
2022-08-11T04:57:34.952Z,1022.37
2022-08-11T04:58:34.918Z,1022.34
2022-08-11T04:59:34.921Z,1022.32
2022-08-11T05:00:34.933Z,1022.33
2022-08-11T05:01:37.297Z,1022.35
2022-08-11T05:02:34.863Z,1022.33
2022-08-11T05:03:34.859Z,1022.34
2022-08-11T05:04:34.842Z,1022.35
2022-08-11T05:05:34.834Z,1022.39
2022-08-11T05:06:34.837Z,1022.35
2022-08-11T05:07:34.812Z,1022.33
2022-08-11T05:08:34.784Z,1022.32
2022-08-11T05:09:34.785Z,1022.29
2022-08-11T05:10:43.047Z,1022.31
2022-08-11T05:11:34.757Z,1022.39
2022-08-11T05:12:34.793Z,1022.40
2022-08-11T05:13:34.729Z,1022.34
2022-08-11T05:14:34.706Z,1022.37
2022-08-11T05:15:43.038Z,1022.33
2022-08-11T05:16:34.768Z,1022.32
2022-08-11T05:17:34.679Z,1022.33
2022-08-11T05:18:34.681Z,1022.30
2022-08-11T05:19:34.643Z,1022.37
2022-08-11T05:20:34.621Z,1022.33
2022-08-11T05:21:44.760Z,1022.32
2022-08-11T05:22:34.597Z,1022.32
2022-08-11T05:23:34.597Z,1022.32
2022-08-11T05:24:34.611Z,1022.27
2022-08-11T05:26:46.658Z,1022.32
2022-08-11T05:26:52.783Z,1022.35
2022-08-11T05:27:34.545Z,1022.28
2022-08-11T05:28:34.532Z,1022.29
2022-08-11T05:29:34.514Z,1022.27
2022-08-11T05:30:34.772Z,1022.32
2022-08-11T05:31:34.490Z,1022.31
2022-08-11T05:32:34.470Z,1022.34
2022-08-11T05:33:34.468Z,1022.32
2022-08-11T05:34:34.444Z,1022.34
2022-08-11T05:36:01.668Z,1022.37
2022-08-11T05:36:34.463Z,1022.36
2022-08-11T05:37:34.422Z,1022.34
2022-08-11T05:38:34.384Z,1022.35
2022-08-11T05:39:36.323Z,1022.34
2022-08-11T05:40:34.372Z,1022.38
2022-08-11T05:41:34.350Z,1022.34
2022-08-11T05:42:34.362Z,1022.41
2022-08-11T05:43:34.334Z,1022.36
2022-08-11T05:44:34.296Z,1022.43
2022-08-11T05:45:57.323Z,1022.43
2022-08-11T05:46:34.274Z,1022.40
2022-08-11T05:47:34.279Z,1022.41
2022-08-11T05:48:34.291Z,1022.40
2022-08-11T05:49:34.244Z,1022.42
2022-08-11T05:50:34.219Z,1022.44
2022-08-11T05:51:34.241Z,1022.47
2022-08-11T05:52:34.294Z,1022.49
2022-08-11T05:53:40.244Z,1022.48
2022-08-11T05:54:34.260Z,1022.49
2022-08-11T05:55:34.166Z,1022.51
2022-08-11T05:56:34.141Z,1022.44
2022-08-11T05:57:50.543Z,1022.44
2022-08-11T05:58:36.952Z,1022.47
2022-08-11T05:59:34.119Z,1022.47
2022-08-11T06:00:34.114Z,1022.47
2022-08-11T06:01:34.141Z,1022.47
2022-08-11T06:02:34.084Z,1022.46
2022-08-11T06:03:34.085Z,1022.48
2022-08-11T06:04:34.034Z,1022.48
2022-08-11T06:05:38.232Z,1022.51
2022-08-11T06:06:34.041Z,1022.53
2022-08-11T06:07:48.810Z,1022.54
2022-08-11T06:08:34.005Z,1022.53
2022-08-11T06:09:33.978Z,1022.53
2022-08-11T06:10:33.948Z,1022.52
2022-08-11T06:11:43.553Z,1022.51
2022-08-11T06:12:33.963Z,1022.50
2022-08-11T06:13:33.936Z,1022.50
2022-08-11T06:14:33.907Z,1022.52
2022-08-11T06:15:33.897Z,1022.49
2022-08-11T06:16:33.872Z,1022.51
2022-08-11T06:17:38.694Z,1022.51
2022-08-11T06:18:33.881Z,1022.51
2022-08-11T06:19:33.853Z,1022.48
2022-08-11T06:20:33.824Z,1022.51
2022-08-11T06:21:33.816Z,1022.53
2022-08-11T06:22:33.797Z,1022.54
2022-08-11T06:23:36.223Z,1022.52
2022-08-11T06:24:33.837Z,1022.52
2022-08-11T06:25:33.779Z,1022.55
2022-08-11T06:26:44.800Z,1022.58
2022-08-11T06:27:33.747Z,1022.55
2022-08-11T06:28:33.719Z,1022.60
2022-08-11T06:29:38.006Z,1022.59
2022-08-11T06:30:33.732Z,1022.59
2022-08-11T06:31:33.690Z,1022.59
2022-08-11T06:32:33.730Z,1022.59
2022-08-11T06:33:33.662Z,1022.61
2022-08-11T06:34:33.650Z,1022.60
2022-08-11T06:35:33.634Z,1022.55
2022-08-11T06:36:33.658Z,1022.54
2022-08-11T06:37:36.561Z,1022.58
2022-08-11T06:38:33.580Z,1022.57
2022-08-11T06:39:33.627Z,1022.54
2022-08-11T06:40:33.560Z,1022.55
2022-08-11T06:41:33.557Z,1022.57
2022-08-11T06:42:33.626Z,1022.55
2022-08-11T06:43:33.528Z,1022.60
2022-08-11T06:44:33.521Z,1022.61
2022-08-11T06:45:33.508Z,1022.63
2022-08-11T06:46:33.549Z,1022.63
2022-08-11T06:47:33.473Z,1022.61
2022-08-11T06:48:33.480Z,1022.63
2022-08-11T06:49:33.467Z,1022.57
2022-08-11T06:50:33.417Z,1022.63
2022-08-11T06:51:33.417Z,1022.57
2022-08-11T06:52:34.235Z,1022.59
2022-08-11T06:53:33.395Z,1022.56
2022-08-11T06:54:33.419Z,1022.57
2022-08-11T06:55:56.882Z,1022.56
2022-08-11T06:56:33.347Z,1022.57
2022-08-11T06:57:33.344Z,1022.58
2022-08-11T06:58:33.313Z,1022.61
2022-08-11T06:59:33.314Z,1022.60
2022-08-11T07:00:33.483Z,1022.58
2022-08-11T07:01:33.324Z,1022.60
2022-08-11T07:02:33.448Z,1022.58
2022-08-11T07:03:33.267Z,1022.58
2022-08-11T07:04:33.231Z,1022.54
2022-08-11T07:05:33.237Z,1022.53
2022-08-11T07:06:34.549Z,1022.52
2022-08-11T07:07:33.211Z,1022.53
2022-08-11T07:08:35.839Z,1022.58
2022-08-11T07:09:33.186Z,1022.55
2022-08-11T07:10:33.150Z,1022.54
2022-08-11T07:11:33.156Z,1022.54
2022-08-11T07:12:33.216Z,1022.53
2022-08-11T07:13:43.189Z,1022.57
2022-08-11T07:14:38.223Z,1022.55
2022-08-11T07:16:09.098Z,1022.60
2022-08-11T07:16:33.145Z,1022.63
2022-08-11T07:17:33.113Z,1022.64
2022-08-11T07:18:33.101Z,1022.58
2022-08-11T07:19:33.057Z,1022.64
2022-08-11T07:20:33.052Z,1022.63
2022-08-11T07:22:00.410Z,1022.59
2022-08-11T07:22:33.048Z,1022.59
2022-08-11T07:23:33.012Z,1022.61
2022-08-11T07:24:58.670Z,1022.60
2022-08-11T07:25:33.000Z,1022.60
2022-08-11T07:26:32.946Z,1022.58
2022-08-11T07:27:35.808Z,1022.57
2022-08-11T07:28:32.924Z,1022.57
2022-08-11T07:29:32.928Z,1022.59
2022-08-11T07:30:32.939Z,1022.58
2022-08-11T07:31:32.899Z,1022.64
2022-08-11T07:32:32.918Z,1022.55
2022-08-11T07:34:07.618Z,1022.57
2022-08-11T07:34:32.878Z,1022.60
2022-08-11T07:35:32.847Z,1022.50
2022-08-11T07:36:32.840Z,1022.52
2022-08-11T07:37:32.823Z,1022.51
2022-08-11T07:38:32.808Z,1022.51
2022-08-11T07:39:32.875Z,1022.53
2022-08-11T07:40:32.763Z,1022.53
2022-08-11T07:41:32.766Z,1022.53
2022-08-11T07:42:32.841Z,1022.53
2022-08-11T07:43:32.730Z,1022.54
2022-08-11T07:44:35.262Z,1022.48
2022-08-11T07:45:32.703Z,1022.52
2022-08-11T07:46:32.687Z,1022.50
2022-08-11T07:47:32.682Z,1022.56
2022-08-11T07:48:32.771Z,1022.60
2022-08-11T07:49:32.657Z,1022.57
2022-08-11T07:50:32.625Z,1022.54
2022-08-11T07:51:32.630Z,1022.48
2022-08-11T07:52:32.829Z,1022.51
2022-08-11T07:53:32.612Z,1022.50
2022-08-11T07:54:33.574Z,1022.47
2022-08-11T07:55:50.941Z,1022.45
2022-08-11T07:56:54.361Z,1022.49
2022-08-11T07:57:54.074Z,1022.49
2022-08-11T07:58:34.762Z,1022.49
2022-08-11T08:00:00.005Z,1022.47
2022-08-11T08:00:32.540Z,1022.48
2022-08-11T08:01:32.572Z,1022.45
2022-08-11T08:02:32.543Z,1022.47
2022-08-11T08:03:32.467Z,1022.46
2022-08-11T08:04:32.459Z,1022.49
2022-08-11T08:05:32.442Z,1022.51
2022-08-11T08:06:36.022Z,1022.54
2022-08-11T08:07:32.426Z,1022.53
2022-08-11T08:08:32.384Z,1022.54
2022-08-11T08:09:32.386Z,1022.56
2022-08-11T08:10:32.360Z,1022.54
2022-08-11T08:11:32.365Z,1022.48
2022-08-11T08:12:32.382Z,1022.48
2022-08-11T08:13:32.342Z,1022.51
2022-08-11T08:14:32.314Z,1022.48
2022-08-11T08:15:32.317Z,1022.51
2022-08-11T08:16:32.287Z,1022.50
2022-08-11T08:17:32.286Z,1022.53
2022-08-11T08:18:32.285Z,1022.47
2022-08-11T08:19:32.283Z,1022.45
2022-08-11T08:20:32.230Z,1022.48
2022-08-11T08:21:32.252Z,1022.45
2022-08-11T08:22:38.388Z,1022.47
2022-08-11T08:23:32.195Z,1022.47
2022-08-11T08:24:32.221Z,1022.50
2022-08-11T08:25:32.165Z,1022.45
2022-08-11T08:26:32.162Z,1022.39
2022-08-11T08:27:32.147Z,1022.39
2022-08-11T08:28:32.799Z,1022.37
2022-08-11T08:29:32.114Z,1022.39
2022-08-11T08:30:32.144Z,1022.37
2022-08-11T08:31:32.093Z,1022.41
2022-08-11T08:32:32.090Z,1022.43
2022-08-11T08:33:32.087Z,1022.45
2022-08-11T08:34:33.542Z,1022.47
2022-08-11T08:35:33.023Z,1022.49
2022-08-11T08:36:32.084Z,1022.46
2022-08-11T08:37:46.604Z,1022.45
2022-08-11T08:38:32.020Z,1022.47
2022-08-11T08:39:32.034Z,1022.46
2022-08-11T08:40:31.994Z,1022.41
2022-08-11T08:41:31.980Z,1022.45
2022-08-11T08:42:32.021Z,1022.44
2022-08-11T08:43:32.509Z,1022.49
2022-08-11T08:44:41.386Z,1022.48
2022-08-11T08:45:31.932Z,1022.47
2022-08-11T08:46:31.957Z,1022.47
2022-08-11T08:47:42.095Z,1022.50
2022-08-11T08:48:31.990Z,1022.46
2022-08-11T08:49:31.862Z,1022.48
2022-08-11T08:50:31.878Z,1022.42
2022-08-11T08:51:54.928Z,1022.44
2022-08-11T08:52:35.910Z,1022.46
2022-08-11T08:53:31.838Z,1022.45
2022-08-11T08:54:31.858Z,1022.47
2022-08-11T08:55:31.817Z,1022.51
2022-08-11T08:56:31.778Z,1022.50
2022-08-11T08:57:31.793Z,1022.48
2022-08-11T08:58:31.760Z,1022.50
2022-08-11T08:59:47.597Z,1022.52
2022-08-11T09:00:31.778Z,1022.48
2022-08-11T09:01:31.771Z,1022.56
2022-08-11T09:02:34.775Z,1022.54
2022-08-11T09:04:06.659Z,1022.53
2022-08-11T09:04:31.682Z,1022.49
2022-08-11T09:05:31.658Z,1022.44
2022-08-11T09:06:31.693Z,1022.49
2022-08-11T09:07:36.577Z,1022.50
2022-08-11T09:08:31.680Z,1022.46
2022-08-11T09:09:31.616Z,1022.47
2022-08-11T09:10:31.625Z,1022.44
2022-08-11T09:11:31.587Z,1022.47
2022-08-11T09:12:53.253Z,1022.51
2022-08-11T09:13:31.555Z,1022.49
2022-08-11T09:14:31.574Z,1022.45
2022-08-11T09:15:31.530Z,1022.51
2022-08-11T09:16:31.562Z,1022.51
2022-08-11T09:17:31.493Z,1022.53
2022-08-11T09:18:33.719Z,1022.56
2022-08-11T09:19:31.476Z,1022.53
2022-08-11T09:20:31.470Z,1022.47
2022-08-11T09:21:45.450Z,1022.47
2022-08-11T09:22:31.458Z,1022.43
2022-08-11T09:24:31.467Z,1022.52
2022-08-11T09:25:31.434Z,1022.45
2022-08-11T09:26:31.406Z,1022.46
2022-08-11T09:27:31.365Z,1022.42
2022-08-11T09:28:31.367Z,1022.44
2022-08-11T09:29:31.367Z,1022.41
2022-08-11T09:30:31.391Z,1022.44
2022-08-11T09:31:34.536Z,1022.37
2022-08-11T09:32:31.320Z,1022.39
2022-08-11T09:33:31.287Z,1022.39
2022-08-11T09:34:31.285Z,1022.30
2022-08-11T09:35:31.377Z,1022.33
2022-08-11T09:36:31.378Z,1022.31
2022-08-11T09:37:54.028Z,1022.34
2022-08-11T09:38:31.233Z,1022.31
2022-08-11T09:39:31.479Z,1022.34
2022-08-11T09:40:31.310Z,1022.42
2022-08-11T09:41:55.695Z,1022.41
2022-08-11T09:42:31.300Z,1022.38
2022-08-11T09:43:31.204Z,1022.29
2022-08-11T09:44:31.162Z,1022.34
2022-08-11T09:45:40.307Z,1022.36
2022-08-11T09:46:31.183Z,1022.31
2022-08-11T09:47:31.144Z,1022.32
2022-08-11T09:48:31.185Z,1022.28
2022-08-11T09:49:31.079Z,1022.29
2022-08-11T09:50:31.150Z,1022.22
2022-08-11T09:51:31.057Z,1022.26
2022-08-11T09:52:31.062Z,1022.29
2022-08-11T09:53:36.198Z,1022.17
2022-08-11T09:54:31.059Z,1022.14
2022-08-11T09:55:31.007Z,1022.17
2022-08-11T09:56:31.005Z,1022.15
2022-08-11T09:57:30.976Z,1022.25
2022-08-11T09:58:42.605Z,1022.22
2022-08-11T09:59:31.167Z,1022.19
2022-08-11T10:00:30.953Z,1022.21
2022-08-11T10:01:31.060Z,1022.19
2022-08-11T10:02:30.940Z,1022.19
2022-08-11T10:03:30.894Z,1022.13
2022-08-11T10:04:30.952Z,1022.18
2022-08-11T10:05:30.890Z,1022.15
2022-08-11T10:06:33.039Z,1022.19
2022-08-11T10:07:30.860Z,1022.13
2022-08-11T10:08:30.845Z,1022.07
2022-08-11T10:09:30.821Z,1022.10
2022-08-11T10:10:30.852Z,1022.04
2022-08-11T10:11:30.797Z,1022.08
2022-08-11T10:12:30.792Z,1022.07
2022-08-11T10:14:30.090Z,1022.05
2022-08-11T10:14:43.984Z,1022.09
2022-08-11T10:15:30.827Z,1022.08
2022-08-11T10:16:30.766Z,1022.08
2022-08-11T10:17:30.734Z,1022.05
2022-08-11T10:18:30.753Z,1022.08
2022-08-11T10:19:30.686Z,1022.04
2022-08-11T10:20:30.718Z,1022.09
2022-08-11T10:21:30.704Z,1022.07
2022-08-11T10:22:32.129Z,1022.02
2022-08-11T10:23:30.644Z,1022.08
2022-08-11T10:24:30.645Z,1022.02
2022-08-11T10:25:30.636Z,1021.95
2022-08-11T10:26:32.003Z,1021.86
2022-08-11T10:27:30.585Z,1021.90
2022-08-11T10:28:49.714Z,1021.95
2022-08-11T10:29:36.759Z,1021.96
2022-08-11T10:30:30.561Z,1021.95
2022-08-11T10:31:30.582Z,1021.92
2022-08-11T10:32:31.626Z,1021.86
2022-08-11T10:33:36.835Z,1021.92
2022-08-11T10:34:30.525Z,1021.89
2022-08-11T10:35:30.509Z,1021.86
2022-08-11T10:36:30.484Z,1021.86
2022-08-11T10:38:07.782Z,1021.87
2022-08-11T10:38:30.474Z,1021.90
2022-08-11T10:39:30.471Z,1021.89
2022-08-11T10:40:30.543Z,1021.88
2022-08-11T10:41:30.404Z,1021.87
2022-08-11T10:42:55.265Z,1021.74
2022-08-11T10:44:01.602Z,1021.65
2022-08-11T10:44:30.382Z,1021.69
2022-08-11T10:45:30.380Z,1021.77
2022-08-11T10:46:30.766Z,1021.80
2022-08-11T10:47:30.331Z,1021.76
2022-08-11T10:48:30.384Z,1021.79
2022-08-11T10:49:30.310Z,1021.83
2022-08-11T10:50:30.307Z,1021.79
2022-08-11T10:51:50.866Z,1021.69
2022-08-11T10:52:30.284Z,1021.73
2022-08-11T10:53:30.301Z,1021.76
2022-08-11T10:54:30.244Z,1021.67
2022-08-11T10:55:30.303Z,1021.73
2022-08-11T10:56:30.220Z,1021.68
2022-08-11T10:57:30.236Z,1021.74
2022-08-11T10:58:30.204Z,1021.71
2022-08-11T10:59:30.202Z,1021.71
2022-08-11T11:00:30.191Z,1021.69
2022-08-11T11:01:30.194Z,1021.65
2022-08-11T11:02:30.156Z,1021.72
2022-08-11T11:03:30.119Z,1021.69
2022-08-11T11:04:33.875Z,1021.72
2022-08-11T11:05:30.098Z,1021.64
2022-08-11T11:06:30.209Z,1021.70
2022-08-11T11:07:30.179Z,1021.65
2022-08-11T11:08:30.069Z,1021.58
2022-08-11T11:09:30.093Z,1021.63
2022-08-11T11:10:30.047Z,1021.64
2022-08-11T11:11:30.014Z,1021.64
2022-08-11T11:12:30.049Z,1021.53
2022-08-11T11:13:29.993Z,1021.47
2022-08-11T11:14:29.999Z,1021.55
2022-08-11T11:15:30.005Z,1021.53
2022-08-11T11:16:29.961Z,1021.55
2022-08-11T11:17:29.952Z,1021.60
2022-08-11T11:18:29.958Z,1021.53
2022-08-11T11:19:29.914Z,1021.52
2022-08-11T11:20:37.833Z,1021.55
2022-08-11T11:21:29.885Z,1021.56
2022-08-11T11:22:30.027Z,1021.50
2022-08-11T11:23:29.870Z,1021.49
2022-08-11T11:24:29.867Z,1021.57
2022-08-11T11:25:29.832Z,1021.52
2022-08-11T11:26:29.875Z,1021.63
2022-08-11T11:27:29.809Z,1021.60
2022-08-11T11:28:29.807Z,1021.59
2022-08-11T11:29:29.825Z,1021.55
2022-08-11T11:30:29.794Z,1021.52
2022-08-11T11:31:29.792Z,1021.50
2022-08-11T11:32:29.857Z,1021.44
2022-08-11T11:33:29.732Z,1021.46
2022-08-11T11:34:29.764Z,1021.48
2022-08-11T11:35:29.721Z,1021.41
2022-08-11T11:36:29.733Z,1021.42
2022-08-11T11:37:29.714Z,1021.39
2022-08-11T11:38:29.688Z,1021.43
2022-08-11T11:39:29.753Z,1021.39
2022-08-11T11:40:31.794Z,1021.41
2022-08-11T11:41:29.653Z,1021.48
2022-08-11T11:42:29.741Z,1021.46
2022-08-11T11:43:29.625Z,1021.36
2022-08-11T11:44:29.620Z,1021.36
2022-08-11T11:45:29.584Z,1021.40
2022-08-11T11:46:30.290Z,1021.37
2022-08-11T11:47:29.549Z,1021.39
2022-08-11T11:48:29.580Z,1021.37
2022-08-11T11:49:29.545Z,1021.41
2022-08-11T11:50:32.942Z,1021.39
2022-08-11T11:51:29.527Z,1021.33
2022-08-11T11:52:29.530Z,1021.30
2022-08-11T11:53:29.508Z,1021.37
2022-08-11T11:54:29.480Z,1021.24
2022-08-11T11:55:29.467Z,1021.25
2022-08-11T11:56:29.459Z,1021.18
2022-08-11T11:57:29.521Z,1021.13
2022-08-11T11:58:29.428Z,1021.11
2022-08-11T11:59:29.440Z,1021.10
2022-08-11T12:00:33.228Z,1021.15
2022-08-11T12:01:29.420Z,1021.19
2022-08-11T12:02:29.406Z,1021.11
2022-08-11T12:03:29.416Z,1021.18
2022-08-11T12:04:29.406Z,1021.13
2022-08-11T12:05:29.341Z,1021.12
2022-08-11T12:06:29.323Z,1021.15